sensor_id;sensor_type;location;lat;lon;timestamp;pressure;altitude;pressure_sealevel;temperature;humidity
51617;BME280;37697;52.588;13.394;2023-02-28T00:15:09;102643.15;;;-0.90;73.23
51617;BME280;37697;52.588;13.394;2023-02-28T05:18:50;102683.42;;;-4.18;77.17
51617;BME280;37697;52.588;13.394;2023-02-28T05:24:06;102685.02;;;-4.21;77.41
51617;BME280;37697;52.588;13.394;2023-02-28T05:29:32;102690.72;;;-4.24;77.47
51617;BME280;37697;52.588;13.394;2023-02-28T05:40:32;102698.64;;;-4.30;77.00
51617;BME280;37697;52.588;13.394;2023-02-28T05:45:48;102700.23;;;-4.35;77.40
51617;BME280;37697;52.588;13.394;2023-02-28T05:51:12;102699.69;;;-4.42;77.54
51617;BME280;37697;52.588;13.394;2023-02-28T05:56:17;102706.81;;;-4.47;77.62
51617;BME280;37697;52.588;13.394;2023-02-28T06:01:41;102706.64;;;-4.52;77.36
51617;BME280;37697;52.588;13.394;2023-02-28T06:06:51;102708.30;;;-4.58;77.63
51617;BME280;37697;52.588;13.394;2023-02-28T06:12:22;102712.17;;;-4.61;77.66
51617;BME280;37697;52.588;13.394;2023-02-28T06:17:29;102714.83;;;-4.62;77.52
51617;BME280;37697;52.588;13.394;2023-02-28T06:22:53;102715.56;;;-4.62;77.44
51617;BME280;37697;52.588;13.394;2023-02-28T06:28:16;102723.66;;;-4.64;77.85
51617;BME280;37697;52.588;13.394;2023-02-28T06:33:45;102729.10;;;-4.65;77.81
51617;BME280;37697;52.588;13.394;2023-02-28T06:39:28;102732.19;;;-4.64;78.13
51617;BME280;37697;52.588;13.394;2023-02-28T06:44:49;102740.20;;;-4.54;77.85
51617;BME280;37697;52.588;13.394;2023-02-28T06:50:14;102744.52;;;-4.29;78.12
51617;BME280;37697;52.588;13.394;2023-02-28T06:55:35;102744.92;;;-4.01;77.88
51617;BME280;37697;52.588;13.394;2023-02-28T07:17:57;102749.73;;;-2.63;78.68
51617;BME280;37697;52.588;13.394;2023-02-28T07:52:41;102761.31;;;-0.17;78.14
51617;BME280;37697;52.588;13.394;2023-02-28T08:21:16;102753.42;;;1.48;74.69
51617;BME280;37697;52.588;13.394;2023-02-28T08:32:28;102752.46;;;1.99;73.72
51617;BME280;37697;52.588;13.394;2023-02-28T08:37:40;102755.02;;;2.41;72.96
51617;BME280;37697;52.588;13.394;2023-02-28T08:43:18;102758.29;;;2.70;71.16
51617;BME280;37697;52.588;13.394;2023-02-28T08:48:52;102753.54;;;3.02;69.86
51617;BME280;37697;52.588;13.394;2023-02-28T08:54:10;102750.41;;;3.30;68.40
51617;BME280;37697;52.588;13.394;2023-02-28T09:22:46;102760.87;;;4.39;61.40
51617;BME280;37697;52.588;13.394;2023-02-28T09:33:56;102756.95;;;4.66;58.44
51617;BME280;37697;52.588;13.394;2023-02-28T09:52:06;102754.88;;;4.93;57.22
51617;BME280;37697;52.588;13.394;2023-02-28T09:58:21;102754.61;;;5.10;56.31
51617;BME280;37697;52.588;13.394;2023-02-28T10:10:41;102760.15;;;5.19;53.47
51617;BME280;37697;52.588;13.394;2023-02-28T10:21:20;102768.15;;;5.38;53.16
51617;BME280;37697;52.588;13.394;2023-02-28T10:39:44;102764.73;;;5.23;50.32
51617;BME280;37697;52.588;13.394;2023-02-28T10:50:51;102760.36;;;5.27;51.27
51617;BME280;37697;52.588;13.394;2023-02-28T10:56:22;102755.69;;;5.19;47.66
51617;BME280;37697;52.588;13.394;2023-02-28T11:02:44;102749.30;;;5.18;49.02
51617;BME280;37697;52.588;13.394;2023-02-28T11:07:53;102734.89;;;5.48;51.16
51617;BME280;37697;52.588;13.394;2023-02-28T11:19:53;102725.87;;;5.73;49.66
51617;BME280;37697;52.588;13.394;2023-02-28T11:32:24;102718.02;;;6.05;49.66
51617;BME280;37697;52.588;13.394;2023-02-28T11:37:23;102714.98;;;6.15;47.12
51617;BME280;37697;52.588;13.394;2023-02-28T11:42:32;102715.95;;;5.99;45.93
51617;BME280;37697;52.588;13.394;2023-02-28T12:05:46;102721.22;;;6.36;47.13
51617;BME280;37697;52.588;13.394;2023-02-28T12:11:21;102712.20;;;6.41;45.35
51617;BME280;37697;52.588;13.394;2023-02-28T12:29:30;102690.30;;;6.70;46.11
51617;BME280;37697;52.588;13.394;2023-02-28T12:35:32;102680.42;;;6.73;45.60
51617;BME280;37697;52.588;13.394;2023-02-28T12:47:28;102659.86;;;6.40;46.75
51617;BME280;37697;52.588;13.394;2023-02-28T13:11:12;102621.84;;;6.54;46.34
51617;BME280;37697;52.588;13.394;2023-02-28T13:27:41;102623.02;;;6.69;46.87
51617;BME280;37697;52.588;13.394;2023-02-28T13:33:32;102619.89;;;6.64;46.87
51617;BME280;37697;52.588;13.394;2023-02-28T13:39:11;102619.71;;;6.70;45.74
51617;BME280;37697;52.588;13.394;2023-02-28T13:44:36;102615.62;;;6.65;46.37
51617;BME280;37697;52.588;13.394;2023-02-28T13:50:34;102614.85;;;6.69;46.65
51617;BME280;37697;52.588;13.394;2023-02-28T14:07:07;102593.34;;;6.39;47.31
51617;BME280;37697;52.588;13.394;2023-02-28T14:18:03;102594.58;;;6.38;46.01
51617;BME280;37697;52.588;13.394;2023-02-28T14:30:15;102596.13;;;6.25;46.49
51617;BME280;37697;52.588;13.394;2023-02-28T14:41:53;102593.61;;;6.05;45.58
51617;BME280;37697;52.588;13.394;2023-02-28T14:47:37;102598.15;;;5.93;45.74
51617;BME280;37697;52.588;13.394;2023-02-28T15:10:28;102579.39;;;5.44;46.20
51617;BME280;37697;52.588;13.394;2023-02-28T15:32:48;102566.71;;;5.06;47.84
51617;BME280;37697;52.588;13.394;2023-02-28T15:44:59;102565.63;;;4.88;48.21
51617;BME280;37697;52.588;13.394;2023-02-28T15:50:22;102563.65;;;4.75;48.05
51617;BME280;37697;52.588;13.394;2023-02-28T16:01:42;102565.58;;;4.45;48.43
51617;BME280;37697;52.588;13.394;2023-02-28T16:12:25;102567.65;;;4.24;49.26
51617;BME280;37697;52.588;13.394;2023-02-28T16:17:46;102566.23;;;4.09;49.34
51617;BME280;37697;52.588;13.394;2023-02-28T16:22:57;102574.27;;;3.94;49.59
51617;BME280;37697;52.588;13.394;2023-02-28T16:28:10;102574.13;;;3.83;50.38
51617;BME280;37697;52.588;13.394;2023-02-28T16:38:58;102570.02;;;3.60;50.57
51617;BME280;37697;52.588;13.394;2023-02-28T16:44:29;102568.60;;;3.44;50.94
51617;BME280;37697;52.588;13.394;2023-02-28T16:49:46;102571.96;;;3.31;51.43
51617;BME280;37697;52.588;13.394;2023-02-28T16:55:43;102572.20;;;3.13;51.85
51617;BME280;37697;52.588;13.394;2023-02-28T17:11:50;102577.45;;;2.48;54.20
51617;BME280;37697;52.588;13.394;2023-02-28T17:17:13;102583.42;;;2.22;54.13
51617;BME280;37697;52.588;13.394;2023-02-28T17:22:33;102588.30;;;1.96;54.60
51617;BME280;37697;52.588;13.394;2023-02-28T17:28:10;102590.20;;;1.77;54.91
51617;BME280;37697;52.588;13.394;2023-02-28T17:33:26;102599.15;;;1.56;55.51
51617;BME280;37697;52.588;13.394;2023-02-28T17:39:08;102597.83;;;1.36;55.69
51617;BME280;37697;52.588;13.394;2023-02-28T17:44:36;102595.48;;;1.15;56.23
51617;BME280;37697;52.588;13.394;2023-02-28T18:51:14;102639.38;;;-0.58;60.26
51617;BME280;37697;52.588;13.394;2023-02-28T20:27:45;102639.05;;;-1.97;64.35
51617;BME280;37697;52.588;13.394;2023-02-28T20:35:13;102635.67;;;-2.04;64.49
51617;BME280;37697;52.588;13.394;2023-02-28T20:40:39;102625.58;;;-2.12;64.56
51617;BME280;37697;52.588;13.394;2023-02-28T20:46:06;102625.48;;;-2.19;64.79
51617;BME280;37697;52.588;13.394;2023-02-28T20:51:34;102626.07;;;-2.28;65.10
51617;BME280;37697;52.588;13.394;2023-02-28T20:56:59;102616.44;;;-2.36;65.13
51617;BME280;37697;52.588;13.394;2023-02-28T21:02:25;102621.77;;;-2.44;65.32
51617;BME280;37697;52.588;13.394;2023-02-28T21:07:52;102624.91;;;-2.51;65.66
51617;BME280;37697;52.588;13.394;2023-02-28T21:13:18;102620.24;;;-2.57;65.72
51617;BME280;37697;52.588;13.394;2023-02-28T21:18:44;102619.64;;;-2.64;65.73
51617;BME280;37697;52.588;13.394;2023-02-28T21:24:11;102616.50;;;-2.69;65.88
51617;BME280;37697;52.588;13.394;2023-02-28T21:29:37;102619.06;;;-2.75;66.07
51617;BME280;37697;52.588;13.394;2023-02-28T21:35:03;102619.31;;;-2.75;66.29
51617;BME280;37697;52.588;13.394;2023-02-28T21:40:29;102621.62;;;-2.82;66.49
51617;BME280;37697;52.588;13.394;2023-02-28T21:45:55;102625.13;;;-2.91;66.64
51617;BME280;37697;52.588;13.394;2023-02-28T21:51:22;102628.54;;;-2.97;66.80
51617;BME280;37697;52.588;13.394;2023-02-28T21:56:48;102627.72;;;-3.05;67.07
51617;BME280;37697;52.588;13.394;2023-02-28T22:02:18;102624.64;;;-3.14;67.10
51617;BME280;37697;52.588;13.394;2023-02-28T22:07:45;102630.02;;;-3.19;67.33
51617;BME280;37697;52.588;13.394;2023-02-28T22:13:02;102628.80;;;-3.25;67.55
51617;BME280;37697;52.588;13.394;2023-02-28T22:18:28;102629.97;;;-3.31;67.58
51617;BME280;37697;52.588;13.394;2023-02-28T22:23:55;102631.63;;;-3.38;67.48
51617;BME280;37697;52.588;13.394;2023-02-28T22:29:21;102634.48;;;-3.43;67.76
51617;BME280;37697;52.588;13.394;2023-02-28T22:34:50;102636.07;;;-3.52;68.33
51617;BME280;37697;52.588;13.394;2023-02-28T22:40:17;102642.15;;;-3.59;68.16
51617;BME280;37697;52.588;13.394;2023-02-28T22:45:42;102641.31;;;-3.65;68.21
51617;BME280;37697;52.588;13.394;2023-02-28T22:51:08;102643.22;;;-3.73;68.42
51617;BME280;37697;52.588;13.394;2023-02-28T22:56:35;102647.95;;;-3.80;68.66
51617;BME280;37697;52.588;13.394;2023-02-28T23:02:00;102651.61;;;-3.86;68.79
51617;BME280;37697;52.588;13.394;2023-02-28T23:07:26;102660.23;;;-3.91;68.71
51617;BME280;37697;52.588;13.394;2023-02-28T23:12:52;102663.13;;;-3.96;69.11
51617;BME280;37697;52.588;13.394;2023-02-28T23:18:18;102665.42;;;-4.01;69.12
51617;BME280;37697;52.588;13.394;2023-02-28T23:23:44;102672.45;;;-4.07;69.14
51617;BME280;37697;52.588;13.394;2023-02-28T23:29:09;102670.69;;;-4.11;69.35
51617;BME280;37697;52.588;13.394;2023-02-28T23:34:35;102676.41;;;-4.16;69.54
51617;BME280;37697;52.588;13.394;2023-02-28T23:40:01;102670.23;;;-4.22;69.63
51617;BME280;37697;52.588;13.394;2023-02-28T23:45:27;102665.08;;;-4.28;69.94
51617;BME280;37697;52.588;13.394;2023-02-28T23:50:52;102656.32;;;-4.31;69.67
51617;BME280;37697;52.588;13.394;2023-02-28T23:56:21;102653.03;;;-4.36;69.92
